PWSweather.com
Personal Weather Stations
Station Observations
KTXROWLE6
Ravens Nest, Rowlett, TX 75089

Ravens NestRowlett, TX 75089

Lat: 32.93105, Lon: -96.57368

Elevation: 556

Station Type: Davis Vantage Pro2 6152

http://rowlett.ws

Latest ConditionsUpdated 7:10:05 PM CDT Sunday, Sep 25, 2016
Currently Today's Max Today's Min Today's Average
Temperature 74.2°F23.4°C 81.1°F27.3°C 73.4°F23.0°C 76.9°F24.9°C
Dew Point 72.6°F22.6°C 76.0°F24.4°C 71.4°F21.9°C 73.2°F22.9°C
Winds Calm Calm 8.0 mph WNW12.9 kmh WNW - 0.4 mph 0.6 kmh
Wind Gusts -- 11.0 mph17.7 kmh - -
Humidity 95% 96% 75% 89%
Pressure 30.01 in1016.3 mb 30.02 in1016.6 mb 29.95 in1014.2 mb -
Precipitation - 1.16 in29.5 mm - -
Hour Temp Dew Point Humidity Winds Wind Gusts Pressure Precip Precip Rate Daily Precip Total
07:10 PM 74.2°F23.4°C 72.6°F22.6°C 95% Calm Calm -- 30.01 in1016.3 mb 0.00 in0.0 mm 0.00 in0.0 mm 1.16 in29.5 mm
07:05 PM 74.3°F23.5°C 72.7°F22.6°C 95% Calm Calm 2.0 mph3.2 kmh 30.01 in1016.3 mb 0.00 in0.0 mm 0.00 in0.0 mm 1.16 in29.5 mm
07:00 PM 74.5°F23.6°C 72.9°F22.7°C 95% Calm Calm 3.0 mph4.8 kmh 30.01 in1016.3 mb 0.00 in0.0 mm 0.00 in0.0 mm 1.16 in29.5 mm
06:55 PM 74.6°F23.7°C 73.0°F22.8°C 95% Calm Calm 6.0 mph9.7 kmh 30.01 in1016.3 mb 0.00 in0.0 mm 0.00 in0.0 mm 1.16 in29.5 mm
06:50 PM 74.7°F23.7°C 73.1°F22.8°C 95% 1.0 mph NNE1.6 kmh NNE 4.0 mph6.4 kmh 30.01 in1016.3 mb 0.00 in0.0 mm 0.00 in0.0 mm 1.16 in29.5 mm
06:45 PM 74.7°F23.7°C 73.1°F22.8°C 95% 2.0 mph NNE3.2 kmh NNE 5.0 mph8.0 kmh 30.01 in1016.3 mb 0.00 in0.0 mm 0.00 in0.0 mm 1.16 in29.5 mm
06:40 PM 74.8°F23.8°C 73.2°F22.9°C 95% Calm Calm 2.0 mph3.2 kmh 30.01 in1016.3 mb 0.00 in0.0 mm 0.00 in0.0 mm 1.16 in29.5 mm
06:35 PM 74.7°F23.7°C 73.1°F22.8°C 95% Calm Calm 1.0 mph1.6 kmh 30.01 in1016.3 mb 0.00 in0.0 mm 0.00 in0.0 mm 1.16 in29.5 mm
06:30 PM 74.7°F23.7°C 73.1°F22.8°C 95% Calm Calm 2.0 mph3.2 kmh 30.01 in1016.3 mb 0.00 in0.0 mm 0.00 in0.0 mm 1.16 in29.5 mm
06:25 PM 74.8°F23.8°C 73.2°F22.9°C 95% Calm Calm 3.0 mph4.8 kmh 30.01 in1016.3 mb 0.00 in0.0 mm 0.00 in0.0 mm 1.16 in29.5 mm
06:20 PM 74.8°F23.8°C 73.2°F22.9°C 95% Calm Calm 3.0 mph4.8 kmh 30.01 in1016.3 mb 0.00 in0.0 mm 0.00 in0.0 mm 1.16 in29.5 mm
06:15 PM 74.9°F23.8°C 73.3°F22.9°C 95% 1.0 mph NNE1.6 kmh NNE 3.0 mph4.8 kmh 30.01 in1016.3 mb 0.00 in0.0 mm 0.00 in0.0 mm 1.16 in29.5 mm
06:10 PM 74.9°F23.8°C 73.3°F22.9°C 95% Calm Calm 3.0 mph4.8 kmh 30.01 in1016.3 mb 0.00 in0.0 mm 0.00 in0.0 mm 1.16 in29.5 mm
06:05 PM 75.1°F23.9°C 73.8°F23.2°C 96% Calm Calm 1.0 mph1.6 kmh 30.01 in1016.3 mb 0.00 in0.0 mm 0.00 in0.0 mm 1.16 in29.5 mm
06:00 PM 75.1°F23.9°C 73.8°F23.2°C 96% Calm Calm -- 30.01 in1016.3 mb 0.01 in0.3 mm 0.00 in0.0 mm 1.16 in29.5 mm
05:55 PM 75.1°F23.9°C 73.8°F23.2°C 96% Calm Calm 1.0 mph1.6 kmh 30.01 in1016.3 mb 0.01 in0.3 mm 0.00 in0.0 mm 1.16 in29.5 mm
05:50 PM 75.1°F23.9°C 73.8°F23.2°C 96% Calm Calm 1.0 mph1.6 kmh 30.01 in1016.3 mb 0.02 in0.5 mm 0.00 in0.0 mm 1.16 in29.5 mm
05:45 PM 75.0°F23.9°C 73.7°F23.2°C 96% Calm Calm -- 30.01 in1016.3 mb 0.02 in0.5 mm 0.00 in0.0 mm 1.16 in29.5 mm
05:40 PM 75.0°F23.9°C 73.7°F23.2°C 96% Calm Calm -- 30.01 in1016.3 mb 0.03 in0.8 mm 0.00 in0.0 mm 1.16 in29.5 mm
05:35 PM 75.0°F23.9°C 73.7°F23.2°C 96% Calm Calm -- 30.01 in1016.3 mb 0.04 in1.0 mm 0.00 in0.0 mm 1.16 in29.5 mm
05:30 PM 74.9°F23.8°C 73.3°F22.9°C 95% Calm Calm 3.0 mph4.8 kmh 30.01 in1016.3 mb 0.05 in1.3 mm 0.00 in0.0 mm 1.16 in29.5 mm
05:25 PM 74.9°F23.8°C 73.3°F22.9°C 95% Calm Calm 2.0 mph3.2 kmh 30.01 in1016.3 mb 0.06 in1.5 mm 0.00 in0.0 mm 1.16 in29.5 mm
05:20 PM 74.8°F23.8°C 73.2°F22.9°C 95% Calm Calm 1.0 mph1.6 kmh 30.00 in1015.9 mb 0.08 in2.0 mm 0.00 in0.0 mm 1.16 in29.5 mm
05:15 PM 74.8°F23.8°C 73.2°F22.9°C 95% Calm Calm 1.0 mph1.6 kmh 30.00 in1015.9 mb 0.09 in2.3 mm 0.00 in0.0 mm 1.16 in29.5 mm
05:10 PM 74.9°F23.8°C 73.3°F22.9°C 95% Calm Calm -- 30.00 in1015.9 mb 0.10 in2.5 mm 0.00 in0.0 mm 1.16 in29.5 mm
05:05 PM 74.9°F23.8°C 73.3°F22.9°C 95% Calm Calm -- 30.00 in1015.9 mb 0.10 in2.5 mm 0.12 in3.0 mm 1.16 in29.5 mm
05:00 PM 74.9°F23.8°C 73.3°F22.9°C 95% Calm Calm -- 29.99 in1015.6 mb 0.09 in2.3 mm 0.00 in0.0 mm 1.15 in29.2 mm
04:55 PM 74.8°F23.8°C 73.5°F23.1°C 96% Calm Calm -- 29.99 in1015.6 mb 0.10 in2.5 mm 0.00 in0.0 mm 1.15 in29.2 mm
04:50 PM 74.8°F23.8°C 73.5°F23.1°C 96% Calm Calm -- 29.98 in1015.2 mb 0.10 in2.5 mm 0.00 in0.0 mm 1.14 in29.0 mm
04:45 PM 74.6°F23.7°C 73.3°F22.9°C 96% Calm Calm -- 29.98 in1015.2 mb 0.11 in2.8 mm 0.00 in0.0 mm 1.14 in29.0 mm
04:40 PM 74.4°F23.6°C 73.1°F22.8°C 96% Calm Calm -- 29.99 in1015.6 mb 0.11 in2.8 mm 0.12 in3.0 mm 1.13 in28.7 mm
04:35 PM 74.2°F23.4°C 72.6°F22.6°C 95% Calm Calm -- 29.99 in1015.6 mb 0.10 in2.5 mm 0.12 in3.0 mm 1.12 in28.4 mm
04:30 PM 74.1°F23.4°C 72.5°F22.5°C 95% Calm Calm -- 29.99 in1015.6 mb 0.09 in2.3 mm 0.12 in3.0 mm 1.11 in28.2 mm
04:25 PM 74.0°F23.3°C 72.4°F22.4°C 95% Calm Calm -- 29.99 in1015.6 mb 0.08 in2.0 mm 0.24 in6.1 mm 1.10 in27.9 mm
04:20 PM 73.9°F23.3°C 72.3°F22.4°C 95% Calm Calm -- 30.00 in1015.9 mb 0.06 in1.5 mm 0.12 in3.0 mm 1.08 in27.4 mm
04:15 PM 73.9°F23.3°C 72.3°F22.4°C 95% Calm Calm -- 30.00 in1015.9 mb 0.05 in1.3 mm 0.12 in3.0 mm 1.07 in27.2 mm
04:10 PM 73.8°F23.2°C 72.2°F22.3°C 95% Calm Calm 1.0 mph1.6 kmh 30.00 in1015.9 mb 0.04 in1.0 mm 0.00 in0.0 mm 1.06 in26.9 mm
04:05 PM 73.8°F23.2°C 72.2°F22.3°C 95% Calm Calm 2.0 mph3.2 kmh 30.00 in1015.9 mb 0.04 in1.0 mm 0.00 in0.0 mm 1.06 in26.9 mm
04:00 PM 73.8°F23.2°C 72.2°F22.3°C 95% Calm Calm 2.0 mph3.2 kmh 30.01 in1016.3 mb 0.05 in1.3 mm 0.01 in0.3 mm 1.06 in26.9 mm
03:55 PM 73.8°F23.2°C 72.2°F22.3°C 95% Calm Calm 1.0 mph1.6 kmh 30.01 in1016.3 mb 0.04 in1.0 mm 0.12 in3.0 mm 1.05 in26.7 mm
03:50 PM 73.7°F23.2°C 72.1°F22.3°C 95% Calm Calm 2.0 mph3.2 kmh 30.01 in1016.3 mb 0.03 in0.8 mm 0.00 in0.0 mm 1.04 in26.4 mm
03:45 PM 73.5°F23.1°C 71.9°F22.2°C 95% 1.0 mph NNE1.6 kmh NNE 2.0 mph3.2 kmh 30.01 in1016.3 mb 0.03 in0.8 mm 0.12 in3.0 mm 1.03 in26.2 mm
03:40 PM 73.5°F23.1°C 71.9°F22.2°C 95% Calm Calm -- 30.01 in1016.3 mb 0.02 in0.5 mm 0.00 in0.0 mm 1.02 in25.9 mm
03:35 PM 73.5°F23.1°C 71.9°F22.2°C 95% Calm Calm -- 30.01 in1016.3 mb 0.03 in0.8 mm 0.00 in0.0 mm 1.02 in25.9 mm
03:30 PM 73.4°F23.0°C 71.5°F21.9°C 94% Calm Calm -- 30.01 in1016.3 mb 0.04 in1.0 mm 0.00 in0.0 mm 1.02 in25.9 mm
03:25 PM 73.4°F23.0°C 71.5°F21.9°C 94% Calm Calm -- 30.01 in1016.3 mb 0.04 in1.0 mm 0.00 in0.0 mm 1.02 in25.9 mm
03:20 PM 73.4°F23.0°C 71.5°F21.9°C 94% Calm Calm -- 30.01 in1016.3 mb 0.04 in1.0 mm 0.00 in0.0 mm 1.02 in25.9 mm
03:15 PM 73.4°F23.0°C 71.5°F21.9°C 94% Calm Calm -- 30.00 in1015.9 mb 0.04 in1.0 mm 0.00 in0.0 mm 1.02 in25.9 mm
03:10 PM 73.4°F23.0°C 71.5°F21.9°C 94% Calm Calm -- 30.00 in1015.9 mb 0.06 in1.5 mm 0.00 in0.0 mm 1.02 in25.9 mm
03:05 PM 73.5°F23.1°C 71.6°F22.0°C 94% Calm Calm -- 30.00 in1015.9 mb 0.06 in1.5 mm 0.00 in0.0 mm 1.02 in25.9 mm
03:00 PM 73.5°F23.1°C 71.6°F22.0°C 94% Calm Calm -- 29.99 in1015.6 mb 0.07 in1.8 mm 0.00 in0.0 mm 1.01 in25.7 mm
02:55 PM 73.6°F23.1°C 72.0°F22.2°C 95% Calm Calm -- 30.00 in1015.9 mb 0.10 in2.5 mm 0.00 in0.0 mm 1.01 in25.7 mm
02:50 PM 73.5°F23.1°C 71.6°F22.0°C 94% Calm Calm -- 30.00 in1015.9 mb 0.18 in4.6 mm 0.00 in0.0 mm 1.01 in25.7 mm
02:45 PM 73.5°F23.1°C 71.6°F22.0°C 94% Calm Calm 1.0 mph1.6 kmh 30.00 in1015.9 mb 0.25 in6.4 mm 0.00 in0.0 mm 1.00 in25.4 mm
02:40 PM 73.5°F23.1°C 71.6°F22.0°C 94% Calm Calm -- 30.00 in1015.9 mb 0.44 in11.2 mm 0.00 in0.0 mm 1.00 in25.4 mm
02:35 PM 73.5°F23.1°C 71.6°F22.0°C 94% Calm Calm 1.0 mph1.6 kmh 30.00 in1015.9 mb 0.49 in12.4 mm 0.00 in0.0 mm 0.99 in25.1 mm
02:30 PM 73.7°F23.2°C 71.8°F22.1°C 94% Calm Calm 1.0 mph1.6 kmh 30.01 in1016.3 mb 0.66 in16.8 mm 0.00 in0.0 mm 0.98 in24.9 mm
02:25 PM 74.0°F23.3°C 72.1°F22.3°C 94% Calm Calm 2.0 mph3.2 kmh 30.01 in1016.3 mb 0.86 in21.8 mm 0.00 in0.0 mm 0.98 in24.9 mm
02:20 PM 74.2°F23.4°C 72.3°F22.4°C 94% 2.0 mph NNE3.2 kmh NNE 4.0 mph6.4 kmh 30.01 in1016.3 mb 0.97 in24.6 mm 0.00 in0.0 mm 0.98 in24.9 mm
02:15 PM 75.1°F23.9°C 73.5°F23.1°C 95% 2.0 mph N3.2 kmh N 4.0 mph6.4 kmh 30.02 in1016.6 mb 0.98 in24.9 mm 0.24 in6.1 mm 0.98 in24.9 mm
02:10 PM 74.9°F23.8°C 73.0°F22.8°C 94% Calm Calm 1.0 mph1.6 kmh 30.02 in1016.6 mb 0.96 in24.4 mm 0.00 in0.0 mm 0.96 in24.4 mm
02:05 PM 74.9°F23.8°C 73.0°F22.8°C 94% Calm Calm 1.0 mph1.6 kmh 30.02 in1016.6 mb 0.96 in24.4 mm 0.24 in6.1 mm 0.96 in24.4 mm
02:00 PM 74.7°F23.7°C 72.8°F22.7°C 94% Calm Calm 3.0 mph4.8 kmh 30.02 in1016.6 mb 0.94 in23.9 mm 0.03 in0.8 mm 0.94 in23.9 mm
01:55 PM 74.6°F23.7°C 72.1°F22.3°C 92% Calm Calm 4.0 mph6.4 kmh 30.02 in1016.6 mb 0.91 in23.1 mm 0.96 in24.4 mm 0.91 in23.1 mm
01:50 PM 74.9°F23.8°C 72.7°F22.6°C 93% Calm Calm 1.0 mph1.6 kmh 30.02 in1016.6 mb 0.83 in21.1 mm 0.96 in24.4 mm 0.83 in21.1 mm
01:45 PM 74.8°F23.8°C 72.3°F22.4°C 92% Calm Calm -- 30.01 in1016.3 mb 0.75 in19.1 mm 2.28 in57.9 mm 0.75 in19.1 mm
01:40 PM 74.9°F23.8°C 72.4°F22.4°C 92% Calm Calm -- 30.01 in1016.3 mb 0.56 in14.2 mm 0.72 in18.3 mm 0.56 in14.2 mm
01:35 PM 74.9°F23.8°C 72.4°F22.4°C 92% Calm Calm 1.0 mph1.6 kmh 30.01 in1016.3 mb 0.50 in12.7 mm 2.16 in54.9 mm 0.50 in12.7 mm
01:30 PM 75.1°F23.9°C 72.2°F22.3°C 91% Calm Calm 5.0 mph8.0 kmh 30.01 in1016.3 mb 0.32 in8.1 mm 2.40 in61.0 mm 0.32 in8.1 mm
01:25 PM 75.7°F24.3°C 72.8°F22.7°C 91% 4.0 mph NW6.4 kmh NW 6.0 mph9.7 kmh 30.01 in1016.3 mb 0.12 in3.0 mm 1.32 in33.5 mm 0.12 in3.0 mm
01:20 PM 76.2°F24.6°C 73.3°F22.9°C 91% Calm Calm 5.0 mph8.0 kmh 30.01 in1016.3 mb 0.01 in0.3 mm 0.12 in3.0 mm 0.01 in0.3 mm
01:15 PM 76.4°F24.7°C 73.5°F23.1°C 91% 5.0 mph NW8.0 kmh NW 9.0 mph14.5 kmh 30.01 in1016.3 mb 0.00 in0.0 mm 0.00 in0.0 mm 0.00 in0.0 mm
01:10 PM 76.8°F24.9°C 73.6°F23.1°C 90% 7.0 mph WNW11.3 kmh WNW 11.0 mph17.7 kmh 30.01 in1016.3 mb 0.00 in0.0 mm 0.00 in0.0 mm 0.00 in0.0 mm
01:05 PM 77.5°F25.3°C 73.3°F22.9°C 87% 8.0 mph WNW12.9 kmh WNW 11.0 mph17.7 kmh 30.01 in1016.3 mb 0.00 in0.0 mm 0.00 in0.0 mm 0.00 in0.0 mm
01:00 PM 78.2°F25.7°C 73.3°F22.9°C 85% 6.0 mph W9.7 kmh W 10.0 mph16.1 kmh 30.00 in1015.9 mb 0.00 in0.0 mm 0.00 in0.0 mm 0.00 in0.0 mm
12:55 PM 78.8°F26.0°C 73.8°F23.2°C 85% 6.0 mph W9.7 kmh W 10.0 mph16.1 kmh 30.00 in1015.9 mb 0.00 in0.0 mm 0.00 in0.0 mm 0.00 in0.0 mm
12:50 PM 80.0°F26.7°C 74.7°F23.7°C 84% 4.0 mph WNW6.4 kmh WNW 8.0 mph12.9 kmh 30.00 in1015.9 mb 0.00 in0.0 mm 0.00 in0.0 mm 0.00 in0.0 mm
12:45 PM 80.5°F26.9°C 74.8°F23.8°C 83% 3.0 mph E4.8 kmh E 3.0 mph4.8 kmh 30.01 in1016.3 mb 0.00 in0.0 mm 0.00 in0.0 mm 0.00 in0.0 mm
12:40 PM 80.5°F26.9°C 75.5°F24.2°C 85% Calm Calm 2.0 mph3.2 kmh 30.00 in1015.9 mb 0.00 in0.0 mm 0.00 in0.0 mm 0.00 in0.0 mm
12:35 PM 80.2°F26.8°C 75.9°F24.4°C 87% Calm Calm 1.0 mph1.6 kmh 30.00 in1015.9 mb 0.00 in0.0 mm 0.00 in0.0 mm 0.00 in0.0 mm
12:30 PM 79.8°F26.6°C 75.5°F24.2°C 87% Calm Calm 3.0 mph4.8 kmh 30.00 in1015.9 mb 0.00 in0.0 mm 0.00 in0.0 mm 0.00 in0.0 mm
12:25 PM 79.4°F26.3°C 75.1°F23.9°C 87% 1.0 mph E1.6 kmh E 5.0 mph8.0 kmh 30.00 in1015.9 mb 0.00 in0.0 mm 0.00 in0.0 mm 0.00 in0.0 mm
12:20 PM 79.3°F26.3°C 75.0°F23.9°C 87% Calm Calm 2.0 mph3.2 kmh 30.00 in1015.9 mb 0.00 in0.0 mm 0.00 in0.0 mm 0.00 in0.0 mm
12:15 PM 79.3°F26.3°C 74.7°F23.7°C 86% Calm Calm 4.0 mph6.4 kmh 30.01 in1016.3 mb 0.00 in0.0 mm 0.00 in0.0 mm 0.00 in0.0 mm
12:10 PM 79.5°F26.4°C 74.9°F23.8°C 86% 1.0 mph E1.6 kmh E 5.0 mph8.0 kmh 30.01 in1016.3 mb 0.00 in0.0 mm 0.00 in0.0 mm 0.00 in0.0 mm
12:05 PM 79.8°F26.6°C 75.5°F24.2°C 87% 3.0 mph E4.8 kmh E 3.0 mph4.8 kmh 30.01 in1016.3 mb 0.00 in0.0 mm 0.00 in0.0 mm 0.00 in0.0 mm
12:00 PM 79.6°F26.4°C 75.3°F24.1°C 87% Calm Calm -- 30.01 in1016.3 mb 0.00 in0.0 mm 0.00 in0.0 mm 0.00 in0.0 mm
11:55 AM 79.4°F26.3°C 75.1°F23.9°C 87% Calm Calm -- 30.01 in1016.3 mb 0.00 in0.0 mm 0.00 in0.0 mm 0.00 in0.0 mm
11:50 AM 79.5°F26.4°C 75.2°F24.0°C 87% Calm Calm -- 30.02 in1016.6 mb 0.00 in0.0 mm 0.00 in0.0 mm 0.00 in0.0 mm
11:45 AM 79.6°F26.4°C 75.3°F24.1°C 87% Calm Calm 1.0 mph1.6 kmh 30.02 in1016.6 mb 0.00 in0.0 mm 0.00 in0.0 mm 0.00 in0.0 mm
11:40 AM 79.9°F26.6°C 76.0°F24.4°C 88% Calm Calm 1.0 mph1.6 kmh 30.02 in1016.6 mb 0.00 in0.0 mm 0.00 in0.0 mm 0.00 in0.0 mm
11:35 AM 79.7°F26.5°C 75.8°F24.3°C 88% Calm Calm 1.0 mph1.6 kmh 30.02 in1016.6 mb 0.00 in0.0 mm 0.00 in0.0 mm 0.00 in0.0 mm
11:30 AM 79.6°F26.4°C 75.7°F24.3°C 88% Calm Calm -- 30.02 in1016.6 mb 0.00 in0.0 mm 0.00 in0.0 mm 0.00 in0.0 mm
11:25 AM 79.7°F26.5°C 75.4°F24.1°C 87% Calm Calm 3.0 mph4.8 kmh 30.02 in1016.6 mb 0.00 in0.0 mm 0.00 in0.0 mm 0.00 in0.0 mm
11:20 AM 79.8°F26.6°C 75.5°F24.2°C 87% 2.0 mph E3.2 kmh E 4.0 mph6.4 kmh 30.02 in1016.6 mb 0.00 in0.0 mm 0.00 in0.0 mm 0.00 in0.0 mm
11:15 AM 79.8°F26.6°C 74.8°F23.8°C 85% 2.0 mph E3.2 kmh E 2.0 mph3.2 kmh 30.02 in1016.6 mb 0.00 in0.0 mm 0.00 in0.0 mm 0.00 in0.0 mm
11:10 AM 80.0°F26.7°C 75.0°F23.9°C 85% Calm Calm 4.0 mph6.4 kmh 30.02 in1016.6 mb 0.00 in0.0 mm 0.00 in0.0 mm 0.00 in0.0 mm
11:05 AM 80.2°F26.8°C 74.9°F23.8°C 84% 1.0 mph E1.6 kmh E 2.0 mph3.2 kmh 30.01 in1016.3 mb 0.00 in0.0 mm 0.00 in0.0 mm 0.00 in0.0 mm
11:00 AM 80.2°F26.8°C 75.2°F24.0°C 85% Calm Calm 2.0 mph3.2 kmh 30.01 in1016.3 mb 0.00 in0.0 mm 0.00 in0.0 mm 0.00 in0.0 mm
10:55 AM 80.2°F26.8°C 75.6°F24.2°C 86% Calm Calm 4.0 mph6.4 kmh 30.01 in1016.3 mb 0.00 in0.0 mm 0.00 in0.0 mm 0.00 in0.0 mm
10:50 AM 80.1°F26.7°C 75.5°F24.2°C 86% 1.0 mph E1.6 kmh E 4.0 mph6.4 kmh 30.01 in1016.3 mb 0.00 in0.0 mm 0.00 in0.0 mm 0.00 in0.0 mm
10:45 AM 79.8°F26.6°C 75.5°F24.2°C 87% 2.0 mph E3.2 kmh E 4.0 mph6.4 kmh 30.01 in1016.3 mb 0.00 in0.0 mm 0.00 in0.0 mm 0.00 in0.0 mm
10:40 AM 79.5°F26.4°C 75.2°F24.0°C 87% 1.0 mph E1.6 kmh E 2.0 mph3.2 kmh 30.01 in1016.3 mb 0.00 in0.0 mm 0.00 in0.0 mm 0.00 in0.0 mm
10:35 AM 79.4°F26.3°C 75.5°F24.2°C 88% 2.0 mph E3.2 kmh E 2.0 mph3.2 kmh 30.01 in1016.3 mb 0.00 in0.0 mm 0.00 in0.0 mm 0.00 in0.0 mm
10:30 AM 79.2°F26.2°C 75.3°F24.1°C 88% Calm Calm 5.0 mph8.0 kmh 30.01 in1016.3 mb 0.00 in0.0 mm 0.00 in0.0 mm 0.00 in0.0 mm
10:25 AM 79.0°F26.1°C 75.1°F23.9°C 88% Calm Calm 2.0 mph3.2 kmh 30.01 in1016.3 mb 0.00 in0.0 mm 0.00 in0.0 mm 0.00 in0.0 mm
10:20 AM 78.9°F26.1°C 75.3°F24.1°C 89% Calm Calm 4.0 mph6.4 kmh 30.01 in1016.3 mb 0.00 in0.0 mm 0.00 in0.0 mm 0.00 in0.0 mm
10:15 AM 78.8°F26.0°C 75.6°F24.2°C 90% Calm Calm 2.0 mph3.2 kmh 30.01 in1016.3 mb 0.00 in0.0 mm 0.00 in0.0 mm 0.00 in0.0 mm
10:10 AM 78.5°F25.8°C 75.3°F24.1°C 90% 1.0 mph E1.6 kmh E 3.0 mph4.8 kmh 30.01 in1016.3 mb 0.00 in0.0 mm 0.00 in0.0 mm 0.00 in0.0 mm
10:05 AM 78.2°F25.7°C 75.0°F23.9°C 90% Calm Calm 4.0 mph6.4 kmh 30.00 in1015.9 mb 0.00 in0.0 mm 0.00 in0.0 mm 0.00 in0.0 mm
10:00 AM 78.1°F25.6°C 75.2°F24.0°C 91% 1.0 mph E1.6 kmh E 4.0 mph6.4 kmh 30.00 in1015.9 mb 0.00 in0.0 mm 0.00 in0.0 mm 0.00 in0.0 mm
09:55 AM 77.9°F25.5°C 75.3°F24.1°C 92% 2.0 mph E3.2 kmh E 2.0 mph3.2 kmh 30.00 in1015.9 mb 0.00 in0.0 mm 0.00 in0.0 mm 0.00 in0.0 mm
09:50 AM 77.7°F25.4°C 75.1°F23.9°C 92% Calm Calm 2.0 mph3.2 kmh 30.00 in1015.9 mb 0.00 in0.0 mm 0.00 in0.0 mm 0.00 in0.0 mm
09:45 AM 77.6°F25.3°C 74.7°F23.7°C 91% 1.0 mph E1.6 kmh E 2.0 mph3.2 kmh 30.01 in1016.3 mb 0.00 in0.0 mm 0.00 in0.0 mm 0.00 in0.0 mm
09:40 AM 77.6°F25.3°C 75.0°F23.9°C 92% Calm Calm 3.0 mph4.8 kmh 30.01 in1016.3 mb 0.00 in0.0 mm 0.00 in0.0 mm 0.00 in0.0 mm
09:35 AM 77.6°F25.3°C 75.0°F23.9°C 92% Calm Calm 4.0 mph6.4 kmh 30.01 in1016.3 mb 0.00 in0.0 mm 0.00 in0.0 mm 0.00 in0.0 mm
09:30 AM 77.5°F25.3°C 74.9°F23.8°C 92% Calm Calm 1.0 mph1.6 kmh 30.01 in1016.3 mb 0.00 in0.0 mm 0.00 in0.0 mm 0.00 in0.0 mm
09:25 AM 77.5°F25.3°C 74.9°F23.8°C 92% Calm Calm 3.0 mph4.8 kmh 30.00 in1015.9 mb 0.00 in0.0 mm 0.00 in0.0 mm 0.00 in0.0 mm
09:20 AM 77.5°F25.3°C 74.9°F23.8°C 92% 2.0 mph E3.2 kmh E 4.0 mph6.4 kmh 30.00 in1015.9 mb 0.00 in0.0 mm 0.00 in0.0 mm 0.00 in0.0 mm
09:15 AM 77.4°F25.2°C 74.8°F23.8°C 92% Calm Calm 8.0 mph12.9 kmh 30.00 in1015.9 mb 0.00 in0.0 mm 0.00 in0.0 mm 0.00 in0.0 mm
09:10 AM 77.3°F25.2°C 74.7°F23.7°C 92% 3.0 mph E4.8 kmh E 7.0 mph11.3 kmh 30.00 in1015.9 mb 0.00 in0.0 mm 0.00 in0.0 mm 0.00 in0.0 mm
09:05 AM 77.2°F25.1°C 75.0°F23.9°C 93% Calm Calm 4.0 mph6.4 kmh 30.00 in1015.9 mb 0.00 in0.0 mm 0.00 in0.0 mm 0.00 in0.0 mm
09:00 AM 77.1°F25.1°C 74.9°F23.8°C 93% Calm Calm 5.0 mph8.0 kmh 30.00 in1015.9 mb 0.00 in0.0 mm 0.00 in0.0 mm 0.00 in0.0 mm
08:55 AM 76.9°F24.9°C 74.7°F23.7°C 93% Calm Calm 3.0 mph4.8 kmh 30.00 in1015.9 mb 0.00 in0.0 mm 0.00 in0.0 mm 0.00 in0.0 mm
08:50 AM 76.9°F24.9°C 74.7°F23.7°C 93% 1.0 mph E1.6 kmh E 4.0 mph6.4 kmh 30.00 in1015.9 mb 0.00 in0.0 mm 0.00 in0.0 mm 0.00 in0.0 mm
08:45 AM 76.8°F24.9°C 74.9°F23.8°C 94% Calm Calm 3.0 mph4.8 kmh 30.00 in1015.9 mb 0.00 in0.0 mm 0.00 in0.0 mm 0.00 in0.0 mm
08:40 AM 76.6°F24.8°C 74.7°F23.7°C 94% Calm Calm 3.0 mph4.8 kmh 30.00 in1015.9 mb 0.00 in0.0 mm 0.00 in0.0 mm 0.00 in0.0 mm
08:35 AM 76.5°F24.7°C 74.6°F23.7°C 94% Calm Calm -- 30.00 in1015.9 mb 0.00 in0.0 mm 0.00 in0.0 mm 0.00 in0.0 mm
08:30 AM 76.3°F24.6°C 74.4°F23.6°C 94% Calm Calm -- 30.00 in1015.9 mb 0.00 in0.0 mm 0.00 in0.0 mm 0.00 in0.0 mm
08:25 AM 76.2°F24.6°C 74.3°F23.5°C 94% Calm Calm 1.0 mph1.6 kmh 30.00 in1015.9 mb 0.00 in0.0 mm 0.00 in0.0 mm 0.00 in0.0 mm
08:20 AM 76.1°F24.5°C 74.2°F23.4°C 94% Calm Calm 1.0 mph1.6 kmh 30.00 in1015.9 mb 0.00 in0.0 mm 0.00 in0.0 mm 0.00 in0.0 mm
08:15 AM 76.1°F24.5°C 74.2°F23.4°C 94% Calm Calm 1.0 mph1.6 kmh 29.99 in1015.6 mb 0.00 in0.0 mm 0.00 in0.0 mm 0.00 in0.0 mm
08:10 AM 76.0°F24.4°C 74.1°F23.4°C 94% Calm Calm 2.0 mph3.2 kmh 29.99 in1015.6 mb 0.00 in0.0 mm 0.00 in0.0 mm 0.00 in0.0 mm
08:05 AM 76.0°F24.4°C 74.1°F23.4°C 94% 1.0 mph E1.6 kmh E 1.0 mph1.6 kmh 29.99 in1015.6 mb 0.00 in0.0 mm 0.00 in0.0 mm 0.00 in0.0 mm
08:00 AM 75.9°F24.4°C 74.0°F23.3°C 94% Calm Calm 2.0 mph3.2 kmh 29.99 in1015.6 mb 0.00 in0.0 mm 0.00 in0.0 mm 0.00 in0.0 mm
07:55 AM 75.9°F24.4°C 74.0°F23.3°C 94% Calm Calm 1.0 mph1.6 kmh 29.99 in1015.6 mb 0.00 in0.0 mm 0.00 in0.0 mm 0.00 in0.0 mm
07:50 AM 75.8°F24.3°C 73.6°F23.1°C 93% Calm Calm 2.0 mph3.2 kmh 29.99 in1015.6 mb 0.00 in0.0 mm 0.00 in0.0 mm 0.00 in0.0 mm
07:45 AM 75.9°F24.4°C 73.7°F23.2°C 93% Calm Calm 1.0 mph1.6 kmh 29.99 in1015.6 mb 0.00 in0.0 mm 0.00 in0.0 mm 0.00 in0.0 mm
07:40 AM 76.0°F24.4°C 73.8°F23.2°C 93% Calm Calm 3.0 mph4.8 kmh 29.99 in1015.6 mb 0.00 in0.0 mm 0.00 in0.0 mm 0.00 in0.0 mm
07:35 AM 76.0°F24.4°C 73.8°F23.2°C 93% Calm Calm 1.0 mph1.6 kmh 30.00 in1015.9 mb 0.00 in0.0 mm 0.00 in0.0 mm 0.00 in0.0 mm
07:30 AM 76.0°F24.4°C 73.8°F23.2°C 93% Calm Calm 2.0 mph3.2 kmh 29.99 in1015.6 mb 0.00 in0.0 mm 0.00 in0.0 mm 0.00 in0.0 mm
07:25 AM 76.0°F24.4°C 73.4°F23.0°C 92% Calm Calm 3.0 mph4.8 kmh 29.99 in1015.6 mb 0.00 in0.0 mm 0.00 in0.0 mm 0.00 in0.0 mm
07:20 AM 75.9°F24.4°C 73.3°F22.9°C 92% 1.0 mph E1.6 kmh E 3.0 mph4.8 kmh 29.99 in1015.6 mb 0.00 in0.0 mm 0.00 in0.0 mm 0.00 in0.0 mm
07:15 AM 75.9°F24.4°C 73.3°F22.9°C 92% Calm Calm 4.0 mph6.4 kmh 30.00 in1015.9 mb 0.00 in0.0 mm 0.00 in0.0 mm 0.00 in0.0 mm
07:10 AM 75.9°F24.4°C 73.3°F22.9°C 92% 1.0 mph E1.6 kmh E 1.0 mph1.6 kmh 29.99 in1015.6 mb 0.00 in0.0 mm 0.00 in0.0 mm 0.00 in0.0 mm
07:05 AM 75.9°F24.4°C 73.3°F22.9°C 92% Calm Calm 1.0 mph1.6 kmh 29.99 in1015.6 mb 0.00 in0.0 mm 0.00 in0.0 mm 0.00 in0.0 mm
07:00 AM 75.9°F24.4°C 73.0°F22.8°C 91% Calm Calm -- 29.99 in1015.6 mb 0.00 in0.0 mm 0.00 in0.0 mm 0.00 in0.0 mm
06:55 AM 75.8°F24.3°C 72.9°F22.7°C 91% Calm Calm 3.0 mph4.8 kmh 29.99 in1015.6 mb 0.00 in0.0 mm 0.00 in0.0 mm 0.00 in0.0 mm
06:50 AM 75.9°F24.4°C 73.0°F22.8°C 91% Calm Calm -- 29.99 in1015.6 mb 0.00 in0.0 mm 0.00 in0.0 mm 0.00 in0.0 mm
06:45 AM 75.9°F24.4°C 73.0°F22.8°C 91% Calm Calm 1.0 mph1.6 kmh 29.99 in1015.6 mb 0.00 in0.0 mm 0.00 in0.0 mm 0.00 in0.0 mm
06:40 AM 76.0°F24.4°C 72.8°F22.7°C 90% Calm Calm -- 29.98 in1015.2 mb 0.00 in0.0 mm 0.00 in0.0 mm 0.00 in0.0 mm
06:35 AM 76.0°F24.4°C 72.8°F22.7°C 90% Calm Calm 1.0 mph1.6 kmh 29.98 in1015.2 mb 0.00 in0.0 mm 0.00 in0.0 mm 0.00 in0.0 mm
06:30 AM 76.0°F24.4°C 72.8°F22.7°C 90% Calm Calm -- 29.98 in1015.2 mb 0.00 in0.0 mm 0.00 in0.0 mm 0.00 in0.0 mm
06:25 AM 76.0°F24.4°C 72.8°F22.7°C 90% Calm Calm -- 29.98 in1015.2 mb 0.00 in0.0 mm 0.00 in0.0 mm 0.00 in0.0 mm
06:20 AM 76.0°F24.4°C 72.8°F22.7°C 90% Calm Calm -- 29.98 in1015.2 mb 0.00 in0.0 mm 0.00 in0.0 mm 0.00 in0.0 mm
06:15 AM 76.0°F24.4°C 72.8°F22.7°C 90% Calm Calm 1.0 mph1.6 kmh 29.98 in1015.2 mb 0.00 in0.0 mm 0.00 in0.0 mm 0.00 in0.0 mm
06:10 AM 76.0°F24.4°C 72.8°F22.7°C 90% Calm Calm -- 29.98 in1015.2 mb 0.00 in0.0 mm 0.00 in0.0 mm 0.00 in0.0 mm
06:05 AM 76.0°F24.4°C 72.5°F22.5°C 89% 1.0 mph E1.6 kmh E 1.0 mph1.6 kmh 29.98 in1015.2 mb 0.00 in0.0 mm 0.00 in0.0 mm 0.00 in0.0 mm
06:00 AM 76.0°F24.4°C 72.5°F22.5°C 89% Calm Calm 1.0 mph1.6 kmh 29.98 in1015.2 mb 0.00 in0.0 mm 0.00 in0.0 mm 0.00 in0.0 mm
05:55 AM 76.1°F24.5°C 72.6°F22.6°C 89% Calm Calm 1.0 mph1.6 kmh 29.97 in1014.9 mb 0.00 in0.0 mm 0.00 in0.0 mm 0.00 in0.0 mm
05:50 AM 76.1°F24.5°C 72.6°F22.6°C 89% Calm Calm 1.0 mph1.6 kmh 29.97 in1014.9 mb 0.00 in0.0 mm 0.00 in0.0 mm 0.00 in0.0 mm
05:45 AM 76.2°F24.6°C 72.7°F22.6°C 89% Calm Calm 1.0 mph1.6 kmh 29.97 in1014.9 mb 0.00 in0.0 mm 0.00 in0.0 mm 0.00 in0.0 mm
05:40 AM 76.2°F24.6°C 72.7°F22.6°C 89% Calm Calm 1.0 mph1.6 kmh 29.97 in1014.9 mb 0.00 in0.0 mm 0.00 in0.0 mm 0.00 in0.0 mm
05:35 AM 76.2°F24.6°C 72.3°F22.4°C 88% Calm Calm -- 29.97 in1014.9 mb 0.00 in0.0 mm 0.00 in0.0 mm 0.00 in0.0 mm
05:30 AM 76.2°F24.6°C 72.3°F22.4°C 88% Calm Calm -- 29.97 in1014.9 mb 0.00 in0.0 mm 0.00 in0.0 mm 0.00 in0.0 mm
05:25 AM 76.3°F24.6°C 72.4°F22.4°C 88% Calm Calm 1.0 mph1.6 kmh 29.97 in1014.9 mb 0.00 in0.0 mm 0.00 in0.0 mm 0.00 in0.0 mm
05:20 AM 76.3°F24.6°C 72.4°F22.4°C 88% Calm Calm -- 29.97 in1014.9 mb 0.00 in0.0 mm 0.00 in0.0 mm 0.00 in0.0 mm
05:15 AM 76.4°F24.7°C 72.5°F22.5°C 88% Calm Calm 1.0 mph1.6 kmh 29.97 in1014.9 mb 0.00 in0.0 mm 0.00 in0.0 mm 0.00 in0.0 mm
05:10 AM 76.5°F24.7°C 72.3°F22.4°C 87% Calm Calm 2.0 mph3.2 kmh 29.97 in1014.9 mb 0.00 in0.0 mm 0.00 in0.0 mm 0.00 in0.0 mm
05:05 AM 76.6°F24.8°C 72.4°F22.4°C 87% Calm Calm 1.0 mph1.6 kmh 29.97 in1014.9 mb 0.00 in0.0 mm 0.00 in0.0 mm 0.00 in0.0 mm
05:00 AM 76.7°F24.8°C 72.5°F22.5°C 87% Calm Calm 2.0 mph3.2 kmh 29.97 in1014.9 mb 0.00 in0.0 mm 0.00 in0.0 mm 0.00 in0.0 mm
04:55 AM 76.8°F24.9°C 72.6°F22.6°C 87% Calm Calm 1.0 mph1.6 kmh 29.97 in1014.9 mb 0.00 in0.0 mm 0.00 in0.0 mm 0.00 in0.0 mm
04:50 AM 76.9°F24.9°C 72.3°F22.4°C 86% Calm Calm -- 29.97 in1014.9 mb 0.00 in0.0 mm 0.00 in0.0 mm 0.00 in0.0 mm
04:45 AM 77.0°F25.0°C 72.4°F22.4°C 86% Calm Calm 3.0 mph4.8 kmh 29.97 in1014.9 mb 0.00 in0.0 mm 0.00 in0.0 mm 0.00 in0.0 mm
04:40 AM 77.1°F25.1°C 72.5°F22.5°C 86% Calm Calm -- 29.96 in1014.6 mb 0.00 in0.0 mm 0.00 in0.0 mm 0.00 in0.0 mm
04:35 AM 77.1°F25.1°C 72.5°F22.5°C 86% Calm Calm -- 29.96 in1014.6 mb 0.00 in0.0 mm 0.00 in0.0 mm 0.00 in0.0 mm
04:30 AM 77.1°F25.1°C 72.5°F22.5°C 86% Calm Calm -- 29.96 in1014.6 mb 0.00 in0.0 mm 0.00 in0.0 mm 0.00 in0.0 mm
04:25 AM 77.2°F25.1°C 72.6°F22.6°C 86% Calm Calm 2.0 mph3.2 kmh 29.96 in1014.6 mb 0.00 in0.0 mm 0.00 in0.0 mm 0.00 in0.0 mm
04:20 AM 77.3°F25.2°C 72.4°F22.4°C 85% Calm Calm 1.0 mph1.6 kmh 29.96 in1014.6 mb 0.00 in0.0 mm 0.00 in0.0 mm 0.00 in0.0 mm
04:15 AM 77.3°F25.2°C 72.4°F22.4°C 85% Calm Calm 1.0 mph1.6 kmh 29.96 in1014.6 mb 0.00 in0.0 mm 0.00 in0.0 mm 0.00 in0.0 mm
04:10 AM 77.4°F25.2°C 72.5°F22.5°C 85% Calm Calm 3.0 mph4.8 kmh 29.96 in1014.6 mb 0.00 in0.0 mm 0.00 in0.0 mm 0.00 in0.0 mm
04:05 AM 77.5°F25.3°C 72.6°F22.6°C 85% Calm Calm 3.0 mph4.8 kmh 29.96 in1014.6 mb 0.00 in0.0 mm 0.00 in0.0 mm 0.00 in0.0 mm
04:00 AM 77.6°F25.3°C 72.7°F22.6°C 85% 1.0 mph E1.6 kmh E 3.0 mph4.8 kmh 29.96 in1014.6 mb 0.00 in0.0 mm 0.00 in0.0 mm 0.00 in0.0 mm
03:55 AM 77.6°F25.3°C 72.7°F22.6°C 85% Calm Calm 1.0 mph1.6 kmh 29.96 in1014.6 mb 0.00 in0.0 mm 0.00 in0.0 mm 0.00 in0.0 mm
03:50 AM 77.6°F25.3°C 72.7°F22.6°C 85% Calm Calm 2.0 mph3.2 kmh 29.96 in1014.6 mb 0.00 in0.0 mm 0.00 in0.0 mm 0.00 in0.0 mm
03:45 AM 77.7°F25.4°C 72.8°F22.7°C 85% Calm Calm 2.0 mph3.2 kmh 29.96 in1014.6 mb 0.00 in0.0 mm 0.00 in0.0 mm 0.00 in0.0 mm
03:40 AM 77.8°F25.4°C 72.5°F22.5°C 84% 1.0 mph E1.6 kmh E 4.0 mph6.4 kmh 29.96 in1014.6 mb 0.00 in0.0 mm 0.00 in0.0 mm 0.00 in0.0 mm
03:35 AM 77.8°F25.4°C 72.5°F22.5°C 84% Calm Calm 4.0 mph6.4 kmh 29.96 in1014.6 mb 0.00 in0.0 mm 0.00 in0.0 mm 0.00 in0.0 mm
03:30 AM 77.9°F25.5°C 72.6°F22.6°C 84% Calm Calm 3.0 mph4.8 kmh 29.96 in1014.6 mb 0.00 in0.0 mm 0.00 in0.0 mm 0.00 in0.0 mm
03:25 AM 77.9°F25.5°C 72.6°F22.6°C 84% Calm Calm 1.0 mph1.6 kmh 29.96 in1014.6 mb 0.00 in0.0 mm 0.00 in0.0 mm 0.00 in0.0 mm
03:20 AM 77.9°F25.5°C 72.6°F22.6°C 84% Calm Calm 3.0 mph4.8 kmh 29.96 in1014.6 mb 0.00 in0.0 mm 0.00 in0.0 mm 0.00 in0.0 mm
03:15 AM 78.0°F25.6°C 72.7°F22.6°C 84% 3.0 mph E4.8 kmh E 7.0 mph11.3 kmh 29.96 in1014.6 mb 0.00 in0.0 mm 0.00 in0.0 mm 0.00 in0.0 mm
03:10 AM 78.0°F25.6°C 72.4°F22.4°C 83% Calm Calm 8.0 mph12.9 kmh 29.96 in1014.6 mb 0.00 in0.0 mm 0.00 in0.0 mm 0.00 in0.0 mm
03:05 AM 78.1°F25.6°C 72.5°F22.5°C 83% Calm Calm 2.0 mph3.2 kmh 29.96 in1014.6 mb 0.00 in0.0 mm 0.00 in0.0 mm 0.00 in0.0 mm
03:00 AM 78.2°F25.7°C 72.2°F22.3°C 82% Calm Calm 2.0 mph3.2 kmh 29.95 in1014.2 mb 0.00 in0.0 mm 0.00 in0.0 mm 0.00 in0.0 mm
02:55 AM 78.3°F25.7°C 72.3°F22.4°C 82% Calm Calm 2.0 mph3.2 kmh 29.95 in1014.2 mb 0.00 in0.0 mm 0.00 in0.0 mm 0.00 in0.0 mm
02:50 AM 78.4°F25.8°C 72.4°F22.4°C 82% Calm Calm 4.0 mph6.4 kmh 29.96 in1014.6 mb 0.00 in0.0 mm 0.00 in0.0 mm 0.00 in0.0 mm
02:45 AM 78.4°F25.8°C 72.4°F22.4°C 82% Calm Calm 3.0 mph4.8 kmh 29.96 in1014.6 mb 0.00 in0.0 mm 0.00 in0.0 mm 0.00 in0.0 mm
02:40 AM 78.4°F25.8°C 72.4°F22.4°C 82% 1.0 mph ESE1.6 kmh ESE 3.0 mph4.8 kmh 29.96 in1014.6 mb 0.00 in0.0 mm 0.00 in0.0 mm 0.00 in0.0 mm
02:35 AM 78.4°F25.8°C 72.0°F22.2°C 81% Calm Calm 3.0 mph4.8 kmh 29.95 in1014.2 mb 0.00 in0.0 mm 0.00 in0.0 mm 0.00 in0.0 mm
02:30 AM 78.5°F25.8°C 72.1°F22.3°C 81% 1.0 mph ESE1.6 kmh ESE 2.0 mph3.2 kmh 29.95 in1014.2 mb 0.00 in0.0 mm 0.00 in0.0 mm 0.00 in0.0 mm
02:25 AM 78.6°F25.9°C 72.2°F22.3°C 81% Calm Calm 4.0 mph6.4 kmh 29.96 in1014.6 mb 0.00 in0.0 mm 0.00 in0.0 mm 0.00 in0.0 mm
02:20 AM 78.6°F25.9°C 72.2°F22.3°C 81% 1.0 mph ESE1.6 kmh ESE 4.0 mph6.4 kmh 29.96 in1014.6 mb 0.00 in0.0 mm 0.00 in0.0 mm 0.00 in0.0 mm
02:15 AM 78.6°F25.9°C 71.8°F22.1°C 80% Calm Calm 3.0 mph4.8 kmh 29.95 in1014.2 mb 0.00 in0.0 mm 0.00 in0.0 mm 0.00 in0.0 mm
02:10 AM 78.7°F25.9°C 71.9°F22.2°C 80% Calm Calm 3.0 mph4.8 kmh 29.95 in1014.2 mb 0.00 in0.0 mm 0.00 in0.0 mm 0.00 in0.0 mm
02:05 AM 78.7°F25.9°C 71.9°F22.2°C 80% Calm Calm 1.0 mph1.6 kmh 29.95 in1014.2 mb 0.00 in0.0 mm 0.00 in0.0 mm 0.00 in0.0 mm
02:00 AM 78.7°F25.9°C 71.6°F22.0°C 79% Calm Calm 2.0 mph3.2 kmh 29.95 in1014.2 mb 0.00 in0.0 mm 0.00 in0.0 mm 0.00 in0.0 mm
01:55 AM 78.8°F26.0°C 71.7°F22.1°C 79% Calm Calm 3.0 mph4.8 kmh 29.95 in1014.2 mb 0.00 in0.0 mm 0.00 in0.0 mm 0.00 in0.0 mm
01:50 AM 78.9°F26.1°C 71.4°F21.9°C 78% 1.0 mph ESE1.6 kmh ESE 5.0 mph8.0 kmh 29.95 in1014.2 mb 0.00 in0.0 mm 0.00 in0.0 mm 0.00 in0.0 mm
01:45 AM 79.1°F26.2°C 71.6°F22.0°C 78% Calm Calm 1.0 mph1.6 kmh 29.95 in1014.2 mb 0.00 in0.0 mm 0.00 in0.0 mm 0.00 in0.0 mm
01:40 AM 79.1°F26.2°C 72.0°F22.2°C 79% Calm Calm 4.0 mph6.4 kmh 29.95 in1014.2 mb 0.00 in0.0 mm 0.00 in0.0 mm 0.00 in0.0 mm
01:35 AM 79.2°F26.2°C 71.7°F22.1°C 78% 1.0 mph ESE1.6 kmh ESE 7.0 mph11.3 kmh 29.95 in1014.2 mb 0.00 in0.0 mm 0.00 in0.0 mm 0.00 in0.0 mm
01:30 AM 79.2°F26.2°C 71.7°F22.1°C 78% 3.0 mph ESE4.8 kmh ESE 3.0 mph4.8 kmh 29.95 in1014.2 mb 0.00 in0.0 mm 0.00 in0.0 mm 0.00 in0.0 mm
01:25 AM 79.3°F26.3°C 71.8°F22.1°C 78% 2.0 mph ESE3.2 kmh ESE 3.0 mph4.8 kmh 29.95 in1014.2 mb 0.00 in0.0 mm 0.00 in0.0 mm 0.00 in0.0 mm
01:20 AM 79.3°F26.3°C 71.8°F22.1°C 78% 1.0 mph ESE1.6 kmh ESE 2.0 mph3.2 kmh 29.95 in1014.2 mb 0.00 in0.0 mm 0.00 in0.0 mm 0.00 in0.0 mm
01:15 AM 79.4°F26.3°C 71.9°F22.2°C 78% Calm Calm 2.0 mph3.2 kmh 29.95 in1014.2 mb 0.00 in0.0 mm 0.00 in0.0 mm 0.00 in0.0 mm
01:10 AM 79.6°F26.4°C 71.7°F22.1°C 77% Calm Calm 1.0 mph1.6 kmh 29.95 in1014.2 mb 0.00 in0.0 mm 0.00 in0.0 mm 0.00 in0.0 mm
01:05 AM 79.6°F26.4°C 71.7°F22.1°C 77% Calm Calm 1.0 mph1.6 kmh 29.96 in1014.6 mb 0.00 in0.0 mm 0.00 in0.0 mm 0.00 in0.0 mm
01:00 AM 79.7°F26.5°C 71.8°F22.1°C 77% Calm Calm 4.0 mph6.4 kmh 29.96 in1014.6 mb 0.00 in0.0 mm 0.00 in0.0 mm 0.00 in0.0 mm
12:55 AM 79.8°F26.6°C 71.5°F21.9°C 76% Calm Calm -- 29.96 in1014.6 mb 0.00 in0.0 mm 0.00 in0.0 mm 0.00 in0.0 mm
12:50 AM 80.0°F26.7°C 71.7°F22.1°C 76% Calm Calm 2.0 mph3.2 kmh 29.96 in1014.6 mb 0.00 in0.0 mm 0.00 in0.0 mm 0.00 in0.0 mm
12:45 AM 80.0°F26.7°C 71.7°F22.1°C 76% Calm Calm 2.0 mph3.2 kmh 29.96 in1014.6 mb 0.00 in0.0 mm 0.00 in0.0 mm 0.00 in0.0 mm
12:40 AM 80.2°F26.8°C 71.5°F21.9°C 75% Calm Calm 1.0 mph1.6 kmh 29.96 in1014.6 mb 0.00 in0.0 mm 0.00 in0.0 mm 0.00 in0.0 mm
12:35 AM 80.2°F26.8°C 71.5°F21.9°C 75% Calm Calm 2.0 mph3.2 kmh 29.96 in1014.6 mb 0.00 in0.0 mm 0.00 in0.0 mm 0.00 in0.0 mm
12:30 AM 80.4°F26.9°C 71.7°F22.1°C 75% Calm Calm -- 29.96 in1014.6 mb 0.00 in0.0 mm 0.00 in0.0 mm 0.00 in0.0 mm
12:25 AM 80.5°F26.9°C 71.8°F22.1°C 75% Calm Calm 4.0 mph6.4 kmh 29.96 in1014.6 mb 0.00 in0.0 mm 0.00 in0.0 mm 0.00 in0.0 mm
12:20 AM 80.6°F27.0°C 71.9°F22.2°C 75% Calm Calm 4.0 mph6.4 kmh 29.96 in1014.6 mb 0.00 in0.0 mm 0.00 in0.0 mm 0.00 in0.0 mm
12:15 AM 80.7°F27.1°C 72.0°F22.2°C 75% Calm Calm 3.0 mph4.8 kmh 29.96 in1014.6 mb 0.00 in0.0 mm 0.00 in0.0 mm 0.00 in0.0 mm
12:10 AM 80.9°F27.2°C 72.2°F22.3°C 75% 3.0 mph ESE4.8 kmh ESE 3.0 mph4.8 kmh 29.96 in1014.6 mb 0.00 in0.0 mm 0.00 in0.0 mm 0.00 in0.0 mm
12:05 AM 81.0°F27.2°C 72.3°F22.4°C 75% Calm Calm 2.0 mph3.2 kmh 29.96 in1014.6 mb 0.00 in0.0 mm 0.00 in0.0 mm 0.00 in0.0 mm
12:00 AM 81.1°F27.3°C 72.4°F22.4°C 75% Calm Calm 3.0 mph4.8 kmh 29.97 in1014.9 mb 0.00 in0.0 mm 0.00 in0.0 mm 0.00 in0.0 mm